Time;durP1;ratioP1;P1;durP2;ratioP2;P2;SDS_P1;SDS_P2;PMS_P1;PMS_P2;Temp;Humidity;BMP_temperature;BMP_pressure;BME280_temperature;BME280_humidity;BME280_pressure;Samples;Min_cycle;Max_cycle;Signal;HPM_P1;HPM_P2
2023/04/28 00:00:46;;;;;;;6.60;4.50;;;11.50;99.90;;;;;;5033384;28;20243;-42
2023/04/28 00:03:12;;;;;;;6.23;4.57;;;11.40;99.90;;;;;;5051015;28;20186;-42
2023/04/28 00:05:38;;;;;;;5.57;4.47;;;11.10;99.90;;;;;;5051905;28;20241;-41
2023/04/28 00:08:04;;;;;;;6.07;4.63;;;11.10;99.90;;;;;;5051698;28;20183;-42
2023/04/28 00:10:30;;;;;;;5.83;4.60;;;11.10;99.90;;;;;;5050372;28;20191;-42
2023/04/28 00:12:55;;;;;;;6.53;4.60;;;11.10;99.90;;;;;;5042916;28;20202;-41
2023/04/28 00:15:21;;;;;;;5.57;4.47;;;11.10;99.90;;;;;;5048081;28;20262;-41
2023/04/28 00:17:47;;;;;;;6.37;4.37;;;11.20;99.90;;;;;;5050456;28;20222;-41
2023/04/28 00:20:13;;;;;;;4.73;4.23;;;11.20;99.90;;;;;;5051451;28;20614;-41
2023/04/28 00:22:39;;;;;;;5.27;4.13;;;11.20;99.90;;;;;;5050098;28;20170;-41
2023/04/28 00:25:05;;;;;;;4.40;4.00;;;11.20;99.90;;;;;;5050596;28;20180;-42
2023/04/28 00:27:32;;;;;;;6.80;4.17;;;11.20;99.90;;;;;;5050068;28;20229;-42
2023/04/28 00:29:58;;;;;;;6.33;4.50;;;11.20;99.90;;;;;;5050010;28;20188;-42
2023/04/28 00:32:24;;;;;;;5.03;4.50;;;11.20;99.90;;;;;;5051307;28;20213;-41
2023/04/28 00:34:50;;;;;;;6.40;4.27;;;11.20;99.90;;;;;;5054164;28;20179;-42
2023/04/28 00:37:16;;;;;;;5.87;4.13;;;11.30;99.90;;;;;;5054426;28;20176;-41
2023/04/28 00:39:45;;;;;;;5.50;4.07;;;11.40;99.90;;;;;;5052318;28;20189;-41
2023/04/28 00:42:15;;;;;;;5.53;4.63;;;11.30;99.90;;;;;;5063927;28;20191;-41
2023/04/28 00:44:41;;;;;;;6.07;4.20;;;11.30;99.90;;;;;;5053288;28;20175;-42
2023/04/28 00:47:10;;;;;;;6.23;4.87;;;11.30;99.90;;;;;;5053630;28;20188;-41
2023/04/28 00:49:37;;;;;;;4.97;4.00;;;11.30;99.90;;;;;;5020238;28;20184;-41
2023/04/28 00:52:05;;;;;;;5.03;4.50;;;11.30;99.90;;;;;;5053784;28;20200;-42
2023/04/28 00:54:33;;;;;;;5.77;4.10;;;11.30;99.90;;;;;;5054247;28;20278;-41
2023/04/28 00:57:02;;;;;;;4.97;4.40;;;11.30;99.90;;;;;;5054186;28;20229;-41
2023/04/28 00:59:28;;;;;;;4.70;4.20;;;11.40;99.90;;;;;;5054118;28;20645;-41
2023/04/28 01:01:55;;;;;;;5.23;4.23;;;11.30;99.90;;;;;;5053381;28;20220;-41
2023/04/28 01:04:21;;;;;;;4.97;4.20;;;11.30;99.90;;;;;;5053720;28;20172;-41
2023/04/28 01:06:49;;;;;;;4.83;4.33;;;11.20;99.90;;;;;;5037059;28;20177;-42
2023/04/28 01:09:15;;;;;;;6.17;4.47;;;11.20;99.90;;;;;;5053295;28;20180;-41
2023/04/28 01:11:41;;;;;;;4.83;4.13;;;11.30;99.90;;;;;;5046082;28;20227;-42
2023/04/28 01:14:09;;;;;;;4.30;3.87;;;11.30;99.90;;;;;;5058664;28;20716;-40
2023/04/28 01:16:38;;;;;;;5.67;4.70;;;11.30;99.90;;;;;;5033478;28;20185;-42
2023/04/28 01:19:07;;;;;;;6.60;4.97;;;11.20;99.90;;;;;;5017182;28;20184;-41
2023/04/28 01:21:34;;;;;;;6.37;4.47;;;11.20;99.90;;;;;;5032895;28;20216;-41
2023/04/28 01:24:14;;;;;;;6.97;4.80;;;11.20;99.90;;;;;;5018823;28;20184;-42
2023/04/28 01:26:40;;;;;;;5.60;4.53;;;11.20;99.90;;;;;;5017037;28;20179;-42
2023/04/28 01:29:06;;;;;;;6.10;5.00;;;11.30;99.90;;;;;;5052738;28;20275;-41
2023/04/28 01:31:31;;;;;;;5.90;4.50;;;11.30;99.90;;;;;;5036631;28;20294;-41
2023/04/28 01:33:57;;;;;;;6.33;5.00;;;11.30;99.90;;;;;;5052989;28;20179;-42
2023/04/28 01:36:23;;;;;;;5.83;5.20;;;11.30;99.90;;;;;;5053113;28;20204;-42
2023/04/28 01:38:50;;;;;;;6.23;4.90;;;11.30;99.90;;;;;;5036687;28;20196;-41
2023/04/28 01:41:16;;;;;;;7.47;4.77;;;11.20;99.90;;;;;;5050915;28;20211;-41
2023/04/28 01:43:42;;;;;;;5.00;4.50;;;11.30;99.90;;;;;;5047348;28;20214;-42
2023/04/28 01:46:09;;;;;;;5.07;4.47;;;11.30;99.90;;;;;;5033335;28;20175;-41
2023/04/28 01:48:35;;;;;;;7.00;5.07;;;11.30;99.90;;;;;;5031894;28;20185;-41
2023/04/28 01:51:00;;;;;;;5.27;4.17;;;11.40;99.90;;;;;;5050027;28;20270;-41
2023/04/28 01:53:26;;;;;;;7.43;4.97;;;11.40;99.90;;;;;;5036153;28;20175;-41
2023/04/28 01:55:53;;;;;;;11.47;5.87;;;11.40;99.90;;;;;;5036046;28;20186;-40
2023/04/28 01:58:19;;;;;;;10.07;6.37;;;11.50;99.90;;;;;;5052918;28;20181;-41
2023/04/28 02:00:45;;;;;;;10.97;7.20;;;11.50;99.90;;;;;;5052189;28;20214;-41
2023/04/28 02:03:12;;;;;;;9.53;6.67;;;11.50;99.90;;;;;;5035521;28;20175;-41
2023/04/28 02:05:38;;;;;;;5.70;5.10;;;11.50;99.90;;;;;;5052661;28;20179;-42
2023/04/28 02:08:04;;;;;;;6.27;4.90;;;11.50;99.90;;;;;;5035939;28;20275;-42
2023/04/28 02:10:29;;;;;;;7.83;5.20;;;11.50;99.90;;;;;;5052082;28;20198;-42
2023/04/28 02:12:55;;;;;;;5.20;4.43;;;11.50;99.90;;;;;;5055947;28;20212;-40
2023/04/28 02:15:21;;;;;;;5.07;4.20;;;11.50;99.90;;;;;;5032042;28;20180;-41
2023/04/28 02:17:47;;;;;;;5.57;4.47;;;11.50;99.90;;;;;;5039244;28;20240;-42
2023/04/28 02:20:13;;;;;;;5.47;4.77;;;11.50;99.90;;;;;;5065382;28;20202;-42
2023/04/28 02:22:40;;;;;;;6.67;5.10;;;11.50;99.90;;;;;;5068406;28;20178;-41
2023/04/28 02:25:06;;;;;;;6.17;4.77;;;11.50;99.90;;;;;;5052330;28;20264;-39
2023/04/28 02:27:37;;;;;;;7.40;4.80;;;11.50;99.90;;;;;;5052110;28;20178;-41
2023/04/28 02:30:06;;;;;;;6.57;5.37;;;11.40;99.90;;;;;;5053171;28;20215;-41
2023/04/28 02:32:32;;;;;;;7.03;5.13;;;11.50;99.90;;;;;;5051888;28;20188;-41
2023/04/28 02:34:58;;;;;;;5.97;4.90;;;11.40;99.90;;;;;;5035247;28;20183;-41
2023/04/28 02:37:25;;;;;;;11.67;10.30;;;11.40;99.90;;;;;;5035919;28;20208;-40
2023/04/28 02:39:51;;;;;;;7.90;7.20;;;11.30;99.90;;;;;;5051652;28;20178;-41
2023/04/28 02:42:17;;;;;;;6.57;5.50;;;11.30;99.90;;;;;;5043038;28;20212;-42
2023/04/28 02:44:43;;;;;;;5.63;5.13;;;11.30;99.90;;;;;;5037150;28;20183;-42
2023/04/28 02:47:08;;;;;;;5.27;4.40;;;11.30;99.90;;;;;;5048377;28;20177;-41
2023/04/28 02:49:34;;;;;;;6.63;4.70;;;11.30;99.90;;;;;;5051951;28;20253;-42
2023/04/28 02:52:00;;;;;;;5.50;4.93;;;11.30;99.90;;;;;;5051184;28;20230;-41
2023/04/28 02:54:27;;;;;;;6.63;4.53;;;11.20;99.90;;;;;;5051190;28;20209;-43
2023/04/28 02:56:55;;;;;;;5.73;4.70;;;11.20;99.90;;;;;;5053430;28;20170;-43
2023/04/28 02:59:23;;;;;;;6.53;4.97;;;11.20;99.90;;;;;;5048441;28;20247;-42
2023/04/28 03:04:30;;;;;;;6.77;4.50;;;11.20;99.90;;;;;;5050593;28;20218;-38
2023/04/28 03:06:56;;;;;;;7.57;5.00;;;11.20;99.90;;;;;;5034403;28;20172;-38
2023/04/28 03:09:22;;;;;;;5.63;5.03;;;11.20;99.90;;;;;;5015804;28;20313;-39
2023/04/28 03:11:47;;;;;;;6.27;5.30;;;11.20;99.90;;;;;;5030155;28;20252;-39
2023/04/28 03:14:13;;;;;;;7.33;4.60;;;11.30;99.90;;;;;;5034080;28;20320;-41
2023/04/28 03:16:39;;;;;;;5.77;5.00;;;11.30;99.90;;;;;;5034429;28;20193;-36
2023/04/28 03:19:05;;;;;;;6.97;4.63;;;11.30;99.90;;;;;;5034745;28;20183;-39
2023/04/28 03:21:31;;;;;;;5.63;5.13;;;11.30;99.90;;;;;;5033827;28;20219;-40
2023/04/28 03:23:57;;;;;;;7.20;5.13;;;11.30;99.90;;;;;;5017949;28;20202;-39
2023/04/28 03:26:23;;;;;;;6.97;4.60;;;11.30;99.90;;;;;;5017449;28;20186;-39
2023/04/28 03:28:51;;;;;;;5.50;4.83;;;11.40;99.90;;;;;;5033775;28;20186;-41
2023/04/28 03:31:17;;;;;;;5.80;4.67;;;11.40;99.90;;;;;;5017487;28;20200;-35
2023/04/28 03:33:45;;;;;;;5.40;4.90;;;11.40;99.90;;;;;;5034192;28;20192;-39
2023/04/28 03:36:12;;;;;;;8.30;5.27;;;11.40;99.90;;;;;;5033192;28;20265;-40
2023/04/28 03:38:38;;;;;;;5.83;5.10;;;11.30;99.90;;;;;;5016377;28;20274;-39
2023/04/28 03:41:04;;;;;;;5.20;4.70;;;11.30;99.90;;;;;;5032373;28;20220;-40
2023/04/28 03:43:30;;;;;;;5.23;4.73;;;11.30;99.90;;;;;;5049657;28;20724;-37
2023/04/28 03:46:09;;;;;;;6.83;4.53;;;11.30;99.90;;;;;;5014472;28;20180;-39
2023/04/28 03:48:35;;;;;;;5.90;4.93;;;11.20;99.90;;;;;;5032655;28;20206;-39
2023/04/28 03:51:01;;;;;;;5.97;4.57;;;11.20;99.90;;;;;;5011540;28;20208;-39
2023/04/28 03:53:27;;;;;;;5.83;4.87;;;11.20;99.90;;;;;;5034579;28;20283;-39
2023/04/28 03:55:53;;;;;;;5.53;4.53;;;11.10;99.90;;;;;;5029524;28;20248;-41
2023/04/28 03:58:18;;;;;;;6.20;4.93;;;11.10;99.90;;;;;;5032327;28;20179;-38
2023/04/28 04:00:45;;;;;;;5.83;5.23;;;11.10;99.90;;;;;;5029007;28;20214;-40
2023/04/28 04:03:11;;;;;;;6.80;5.27;;;11.00;99.90;;;;;;5012987;28;20206;-39
2023/04/28 04:05:40;;;;;;;6.80;5.40;;;11.00;99.90;;;;;;5022366;28;20175;-39
2023/04/28 04:08:07;;;;;;;5.53;4.87;;;11.00;99.90;;;;;;5026188;28;20204;-39
2023/04/28 04:10:38;;;;;;;5.73;4.87;;;11.00;99.90;;;;;;4995725;28;20243;-38
2023/04/28 04:13:07;;;;;;;5.30;4.80;;;11.00;99.90;;;;;;5014173;28;20219;-37
2023/04/28 04:15:35;;;;;;;5.27;4.47;;;11.00;99.90;;;;;;5045516;28;20196;-42
2023/04/28 04:18:07;;;;;;;7.30;5.23;;;11.10;99.90;;;;;;5044328;28;20178;-37
2023/04/28 04:21:02;;;;;;;6.63;4.80;;;11.20;99.90;;;;;;5034538;28;20214;-41
2023/04/28 04:23:28;;;;;;;5.33;4.83;;;11.20;99.90;;;;;;5032189;28;20176;-41
2023/04/28 04:25:55;;;;;;;7.03;4.60;;;11.20;99.90;;;;;;5015325;28;20212;-40
2023/04/28 04:28:21;;;;;;;6.23;4.73;;;11.30;99.90;;;;;;5023589;28;20188;-41
2023/04/28 04:30:47;;;;;;;6.07;4.53;;;11.30;99.90;;;;;;5015136;28;20281;-41
2023/04/28 04:33:13;;;;;;;7.77;5.93;;;11.20;99.90;;;;;;5017164;28;20196;-39
2023/04/28 04:35:39;;;;;;;5.27;4.77;;;11.20;99.90;;;;;;5017182;28;20182;-40
2023/04/28 04:38:06;;;;;;;5.70;4.87;;;11.20;99.90;;;;;;5032552;28;20187;-41
2023/04/28 04:40:32;;;;;;;6.50;5.60;;;11.20;99.90;;;;;;5015300;28;20258;-43
2023/04/28 04:42:58;;;;;;;6.80;5.93;;;11.20;99.90;;;;;;5032181;28;20262;-41
2023/04/28 04:45:27;;;;;;;6.97;5.23;;;11.20;99.90;;;;;;5031601;28;20185;-41
2023/04/28 04:47:52;;;;;;;6.43;5.70;;;11.20;99.90;;;;;;5049097;28;20180;-41
2023/04/28 04:50:18;;;;;;;6.70;6.00;;;11.20;99.90;;;;;;5031997;28;20202;-41
2023/04/28 04:52:44;;;;;;;10.07;6.83;;;11.10;99.90;;;;;;5031828;28;20277;-42
2023/04/28 04:55:10;;;;;;;7.83;6.60;;;11.20;99.90;;;;;;5030965;28;20275;-38
2023/04/28 04:57:37;;;;;;;8.00;6.00;;;11.20;99.90;;;;;;5032210;28;20187;-41
2023/04/28 05:00:08;;;;;;;7.17;5.70;;;11.10;99.90;;;;;;5031168;28;20178;-43
2023/04/28 05:02:34;;;;;;;8.00;5.70;;;11.00;99.90;;;;;;5016089;28;20182;-39
2023/04/28 05:05:03;;;;;;;11.20;6.40;;;11.00;99.90;;;;;;5045342;28;20186;-40
2023/04/28 05:07:29;;;;;;;7.27;6.10;;;10.90;99.90;;;;;;5045297;28;20196;-41
2023/04/28 05:09:55;;;;;;;9.17;6.30;;;10.90;99.90;;;;;;5037083;28;20175;-41
2023/04/28 05:12:20;;;;;;;7.13;6.20;;;10.90;99.90;;;;;;5059434;28;20183;-39
2023/04/28 05:14:46;;;;;;;7.47;6.10;;;10.80;99.90;;;;;;5041499;28;20178;-41
2023/04/28 05:17:13;;;;;;;7.03;6.17;;;10.80;99.90;;;;;;5023260;28;20179;-41
2023/04/28 05:19:40;;;;;;;10.00;6.83;;;10.80;99.90;;;;;;5028931;28;20240;-38
2023/04/28 05:22:06;;;;;;;6.80;6.10;;;10.80;99.90;;;;;;5049036;28;20288;-39
2023/04/28 05:24:36;;;;;;;8.63;6.70;;;10.80;99.90;;;;;;5015801;28;20182;-39
2023/04/28 05:27:02;;;;;;;9.03;6.73;;;10.80;99.90;;;;;;5015959;28;20266;-41
2023/04/28 05:29:28;;;;;;;10.03;6.70;;;10.80;99.90;;;;;;5000495;28;20175;-39
2023/04/28 05:31:54;;;;;;;9.23;7.13;;;10.80;99.90;;;;;;5001833;28;20195;-40
2023/04/28 05:34:22;;;;;;;8.27;6.50;;;10.80;99.90;;;;;;5018742;28;20548;-40
2023/04/28 05:36:48;;;;;;;9.87;6.83;;;10.70;99.90;;;;;;5034392;28;20283;-41
2023/04/28 05:39:14;;;;;;;8.53;6.43;;;10.80;99.90;;;;;;5018561;28;20193;-41
2023/04/28 05:41:41;;;;;;;7.10;6.40;;;10.80;99.90;;;;;;5032817;28;20215;-41
2023/04/28 05:44:07;;;;;;;8.97;7.17;;;10.70;99.90;;;;;;5024291;28;20184;-37
2023/04/28 05:46:33;;;;;;;8.70;6.47;;;10.70;99.90;;;;;;5022886;28;20199;-40
2023/04/28 05:48:59;;;;;;;9.20;6.23;;;10.70;99.90;;;;;;5034369;28;20182;-41
2023/04/28 05:51:28;;;;;;;7.93;6.03;;;10.80;99.90;;;;;;5034577;28;20198;-41
2023/04/28 05:53:55;;;;;;;8.80;6.40;;;10.80;99.90;;;;;;5034382;28;20202;-41
2023/04/28 05:56:22;;;;;;;8.93;6.40;;;10.90;99.90;;;;;;5030801;28;20189;-41
2023/04/28 05:58:49;;;;;;;8.90;6.37;;;11.00;99.90;;;;;;4998830;28;20260;-40
2023/04/28 06:01:16;;;;;;;7.17;6.27;;;11.00;99.90;;;;;;5014609;28;20674;-40
2023/04/28 06:03:41;;;;;;;6.97;6.27;;;11.10;99.90;;;;;;5014496;28;20192;-41
2023/04/28 06:06:10;;;;;;;6.20;5.60;;;11.20;99.90;;;;;;5013145;28;20206;-39
2023/04/28 06:08:37;;;;;;;6.67;5.77;;;11.30;99.90;;;;;;5013895;28;20193;-41
2023/04/28 06:11:04;;;;;;;6.30;5.70;;;11.30;99.90;;;;;;5013596;28;20204;-41
2023/04/28 06:13:30;;;;;;;9.77;8.77;;;11.40;99.90;;;;;;5017224;28;20267;-41
2023/04/28 06:15:56;;;;;;;9.07;8.13;;;11.50;99.90;;;;;;5050612;28;20287;-41
2023/04/28 06:18:23;;;;;;;8.37;7.30;;;11.60;99.90;;;;;;5033765;28;20185;-39
2023/04/28 06:20:49;;;;;;;7.73;6.57;;;11.70;99.90;;;;;;5032599;28;20219;-41
2023/04/28 06:23:15;;;;;;;6.87;5.90;;;11.70;99.90;;;;;;5033198;28;20189;-41
2023/04/28 06:25:44;;;;;;;6.10;5.50;;;11.80;99.90;;;;;;5034544;28;20199;-42
2023/04/28 06:28:12;;;;;;;7.50;5.87;;;11.80;99.90;;;;;;5033787;28;20182;-41
2023/04/28 06:30:37;;;;;;;6.53;5.77;;;11.80;99.90;;;;;;5051628;28;20227;-41
2023/04/28 06:33:04;;;;;;;8.73;5.63;;;11.80;99.90;;;;;;5034500;28;20184;-39
2023/04/28 06:35:30;;;;;;;7.30;5.93;;;11.90;99.90;;;;;;5017874;28;20174;-41
2023/04/28 06:37:55;;;;;;;8.03;6.17;;;11.90;99.90;;;;;;5034548;28;20191;-41
2023/04/28 06:40:21;;;;;;;7.97;6.27;;;11.90;99.90;;;;;;5034275;28;20290;-39
2023/04/28 06:42:52;;;;;;;7.27;5.73;;;11.90;99.90;;;;;;5033113;28;20264;-39
2023/04/28 06:45:23;;;;;;;7.23;5.87;;;12.00;99.90;;;;;;5018134;28;20660;-41
2023/04/28 06:47:49;;;;;;;8.70;6.33;;;12.00;99.90;;;;;;5050928;28;20188;-41
2023/04/28 06:50:15;;;;;;;7.40;6.33;;;12.00;99.90;;;;;;5033297;28;20216;-41
2023/04/28 06:52:41;;;;;;;8.17;6.17;;;12.10;99.90;;;;;;5033935;28;20227;-40
2023/04/28 06:55:11;;;;;;;8.90;5.73;;;12.10;99.90;;;;;;5034013;28;20177;-41
2023/04/28 06:57:36;;;;;;;7.40;6.50;;;12.10;99.90;;;;;;5033652;28;20272;-39
2023/04/28 07:00:03;;;;;;;7.37;6.43;;;12.10;99.90;;;;;;5032768;28;20264;-41
2023/04/28 07:02:29;;;;;;;8.23;6.50;;;12.00;99.90;;;;;;5049040;28;20219;-41
2023/04/28 07:04:55;;;;;;;7.27;5.87;;;12.00;99.90;;;;;;5033764;28;20181;-40
2023/04/28 07:07:21;;;;;;;8.33;6.07;;;12.00;99.90;;;;;;5033906;28;20178;-41
2023/04/28 07:09:46;;;;;;;8.17;6.30;;;12.00;99.90;;;;;;5051892;28;20185;-41
2023/04/28 07:12:12;;;;;;;6.77;5.83;;;12.00;99.90;;;;;;5032621;28;20292;-39
2023/04/28 07:14:38;;;;;;;7.13;5.90;;;12.00;99.90;;;;;;5033295;28;20192;-38
2023/04/28 07:17:04;;;;;;;9.40;5.43;;;12.10;99.90;;;;;;5051653;28;20268;-41
2023/04/28 07:19:33;;;;;;;8.00;6.10;;;12.10;99.90;;;;;;5031336;28;20212;-41
2023/04/28 07:21:59;;;;;;;7.87;5.17;;;12.10;99.90;;;;;;5017132;28;20314;-40
2023/04/28 07:24:26;;;;;;;7.03;5.60;;;12.20;99.90;;;;;;5033990;28;20256;-41
2023/04/28 07:26:51;;;;;;;8.80;5.73;;;12.20;99.90;;;;;;5046310;28;20177;-39
2023/04/28 07:29:18;;;;;;;5.97;5.37;;;12.30;99.90;;;;;;5014610;28;20252;-41
2023/04/28 07:31:43;;;;;;;9.33;6.97;;;12.40;99.90;;;;;;5039703;28;20206;-41
2023/04/28 07:34:09;;;;;;;7.57;6.33;;;12.40;99.90;;;;;;5013801;28;20189;-40
2023/04/28 07:36:35;;;;;;;7.27;6.57;;;12.50;99.90;;;;;;5032248;28;20182;-41
2023/04/28 07:39:01;;;;;;;6.83;5.67;;;12.60;99.90;;;;;;5023094;28;20649;-41
2023/04/28 07:41:27;;;;;;;7.37;6.23;;;12.70;99.90;;;;;;5033411;28;20217;-41
2023/04/28 07:43:53;;;;;;;8.73;6.37;;;12.70;99.90;;;;;;5032308;28;20224;-41
2023/04/28 07:46:19;;;;;;;7.43;6.50;;;12.80;99.90;;;;;;5039360;28;20198;-41
2023/04/28 07:48:45;;;;;;;9.13;6.97;;;12.90;99.90;;;;;;5031177;28;20256;-40
2023/04/28 07:51:11;;;;;;;8.33;6.87;;;12.90;99.90;;;;;;5015945;28;20300;-40
2023/04/28 07:53:36;;;;;;;6.90;6.17;;;12.90;99.90;;;;;;5016133;28;20185;-38
2023/04/28 07:56:02;;;;;;;5.87;5.27;;;13.00;99.90;;;;;;5038322;28;20245;-39
2023/04/28 07:58:28;;;;;;;7.73;7.03;;;13.00;99.90;;;;;;5032196;28;20185;-42
2023/04/28 08:00:54;;;;;;;11.37;10.03;;;13.00;99.90;;;;;;5031321;28;20217;-41
2023/04/28 08:03:20;;;;;;;9.00;7.27;;;13.10;99.90;;;;;;5050872;28;20178;-41
2023/04/28 08:05:46;;;;;;;4.53;4.13;;;13.10;99.90;;;;;;5049729;28;20184;-40
2023/04/28 08:08:11;;;;;;;3.60;3.30;;;13.10;99.90;;;;;;5050440;28;20182;-41
2023/04/28 08:10:40;;;;;;;3.80;3.50;;;13.20;99.90;;;;;;5047265;28;20216;-40
2023/04/28 08:13:06;;;;;;;3.30;3.00;;;13.30;99.90;;;;;;5040489;28;20174;-39
2023/04/28 08:15:32;;;;;;;3.67;3.30;;;13.30;99.90;;;;;;5027257;28;20281;-41
2023/04/28 08:17:58;;;;;;;3.23;2.93;;;13.40;99.90;;;;;;5016063;28;20265;-42
2023/04/28 08:20:24;;;;;;;3.90;3.60;;;13.40;99.90;;;;;;5030312;28;20570;-41
2023/04/28 08:22:49;;;;;;;3.00;2.80;;;13.40;99.90;;;;;;5032768;28;20177;-40
2023/04/28 08:25:17;;;;;;;3.37;3.10;;;13.40;99.90;;;;;;5031882;28;20181;-41
2023/04/28 08:27:43;;;;;;;3.90;2.70;;;13.40;99.90;;;;;;5032561;28;20192;-40
2023/04/28 08:30:09;;;;;;;3.80;3.00;;;13.50;99.90;;;;;;5032409;28;20200;-41
2023/04/28 08:32:35;;;;;;;3.33;3.03;;;13.40;99.90;;;;;;5031874;28;20170;-40
2023/04/28 08:35:00;;;;;;;4.97;3.80;;;13.50;99.90;;;;;;5050375;28;20230;-39
2023/04/28 08:37:27;;;;;;;3.63;3.30;;;13.50;99.90;;;;;;5015929;28;20189;-41
2023/04/28 08:40:00;;;;;;;4.83;3.27;;;13.60;99.90;;;;;;5042709;28;20178;-40
2023/04/28 08:42:31;;;;;;;3.37;3.00;;;13.60;99.90;;;;;;5022578;28;20185;-42
2023/04/28 08:44:58;;;;;;;3.13;2.80;;;13.60;99.90;;;;;;5042078;28;20701;-42
2023/04/28 08:47:35;;;;;;;3.40;3.00;;;13.70;99.90;;;;;;5027840;28;20290;-42
2023/04/28 08:50:08;;;;;;;3.37;2.80;;;13.70;99.90;;;;;;5033285;28;20189;-40
2023/04/28 08:52:35;;;;;;;3.30;3.00;;;13.80;99.90;;;;;;5028913;28;20270;-41
2023/04/28 08:55:05;;;;;;;3.67;2.90;;;13.80;99.90;;;;;;5000012;28;20175;-42
2023/04/28 08:57:37;;;;;;;3.33;3.03;;;13.90;99.90;;;;;;5017484;28;20175;-43
2023/04/28 09:00:04;;;;;;;3.03;2.67;;;13.90;99.90;;;;;;5033309;28;20259;-42
2023/04/28 09:02:30;;;;;;;3.30;3.00;;;13.90;99.90;;;;;;5033914;28;20202;-42
2023/04/28 09:04:56;;;;;;;3.10;2.80;;;14.00;99.90;;;;;;5026915;28;20245;-42
2023/04/28 09:07:22;;;;;;;2.77;2.53;;;14.00;99.90;;;;;;5045087;28;20190;-41
2023/04/28 09:09:48;;;;;;;2.43;2.23;;;14.00;99.90;;;;;;5017972;28;20184;-42
2023/04/28 09:12:14;;;;;;;3.30;2.27;;;14.00;99.90;;;;;;5034359;28;20189;-42
2023/04/28 09:14:39;;;;;;;3.27;2.37;;;14.00;99.90;;;;;;5037376;28;20178;-43
2023/04/28 09:17:13;;;;;;;2.40;2.20;;;14.00;99.90;;;;;;5034126;28;20174;-42
2023/04/28 09:19:41;;;;;;;2.70;2.30;;;14.00;99.90;;;;;;5040940;28;20181;-43
2023/04/28 09:22:07;;;;;;;2.60;2.40;;;13.90;99.90;;;;;;5053079;28;20260;-43
2023/04/28 09:24:39;;;;;;;2.33;2.13;;;14.00;99.90;;;;;;5034874;28;20177;-42
2023/04/28 09:27:09;;;;;;;2.10;1.90;;;14.00;99.90;;;;;;5035677;28;20186;-43
2023/04/28 09:29:36;;;;;;;2.90;1.80;;;14.00;99.90;;;;;;5035411;28;20181;-41
2023/04/28 09:32:19;;;;;;;2.47;1.83;;;14.10;99.90;;;;;;5035029;28;20225;-43
2023/04/28 09:34:55;;;;;;;2.03;1.93;;;14.20;99.90;;;;;;5035522;28;20247;-42
2023/04/28 09:37:23;;;;;;;2.33;2.10;;;14.30;99.90;;;;;;5035499;28;20190;-43
2023/04/28 09:39:53;;;;;;;5.83;3.37;;;14.30;99.90;;;;;;5035496;28;20285;-43
2023/04/28 09:42:35;;;;;;;11.17;7.03;;;14.50;99.90;;;;;;5052865;28;20248;-43
2023/04/28 09:45:08;;;;;;;5.47;4.00;;;14.60;99.90;;;;;;5018786;28;20181;-43
2023/04/28 09:47:42;;;;;;;6.13;3.97;;;14.70;99.90;;;;;;5053519;28;20185;-43
2023/04/28 09:50:13;;;;;;;3.33;3.03;;;14.80;99.90;;;;;;5035135;28;20185;-43
2023/04/28 09:52:41;;;;;;;3.63;2.70;;;15.00;99.90;;;;;;5052378;28;20189;-43
2023/04/28 09:55:10;;;;;;;2.30;2.10;;;15.10;99.90;;;;;;5033695;28;20182;-43
2023/04/28 09:57:37;;;;;;;2.40;2.20;;;15.20;99.90;;;;;;5053239;28;20182;-43
2023/04/28 10:00:09;;;;;;;1.80;1.70;;;15.40;99.90;;;;;;5035263;28;20227;-43
2023/04/28 10:02:36;;;;;;;3.50;1.87;;;15.40;99.90;;;;;;5052080;28;20194;-43
2023/04/28 10:05:04;;;;;;;2.23;2.00;;;15.50;99.90;;;;;;5052713;28;20174;-43
2023/04/28 10:07:34;;;;;;;3.87;2.27;;;15.60;99.90;;;;;;5051724;28;20182;-43
2023/04/28 10:10:00;;;;;;;2.17;1.90;;;15.70;99.90;;;;;;5035185;28;20316;-43
2023/04/28 10:12:27;;;;;;;2.90;1.60;;;15.70;99.90;;;;;;5033507;28;20250;-44
2023/04/28 10:14:53;;;;;;;2.33;1.60;;;15.70;99.90;;;;;;5052595;28;20182;-43
2023/04/28 10:17:21;;;;;;;1.50;1.40;;;15.80;99.90;;;;;;5034726;28;20190;-42
2023/04/28 10:19:51;;;;;;;2.03;1.40;;;15.80;99.90;;;;;;5034633;28;20212;-41
2023/04/28 10:22:54;;;;;;;3.30;2.10;;;15.90;99.90;;;;;;5052086;28;20210;-43
2023/04/28 10:25:30;;;;;;;2.10;1.70;;;16.00;99.90;;;;;;5033921;28;20219;-43
2023/04/28 10:27:59;;;;;;;2.37;2.13;;;16.10;99.90;;;;;;5046772;28;20182;-43
2023/04/28 10:30:30;;;;;;;1.37;1.27;;;16.20;99.90;;;;;;5045059;28;20216;-42
2023/04/28 10:33:14;;;;;;;1.83;1.50;;;16.30;99.90;;;;;;5052276;28;20177;-43
2023/04/28 10:35:45;;;;;;;1.40;1.17;;;16.30;99.90;;;;;;5033784;28;20186;-42
2023/04/28 10:38:12;;;;;;;0.83;0.83;;;16.20;99.90;;;;;;5052557;28;20211;-42
2023/04/28 10:40:43;;;;;;;2.70;1.13;;;16.10;99.90;;;;;;5029868;28;20237;-42
2023/04/28 10:43:13;;;;;;;0.97;0.90;;;16.20;99.90;;;;;;5044037;28;20181;-42
2023/04/28 10:45:48;;;;;;;0.90;0.90;;;16.30;99.90;;;;;;5055909;28;20227;-43
2023/04/28 10:48:15;;;;;;;0.67;0.67;;;16.40;99.90;;;;;;5055179;28;20204;-43
2023/04/28 10:51:05;;;;;;;1.10;1.00;;;16.70;99.90;;;;;;5054047;28;20205;-42
2023/04/28 10:53:43;;;;;;;0.70;0.70;;;16.90;99.90;;;;;;5051325;28;20178;-43
2023/04/28 10:56:18;;;;;;;0.65;0.60;;;17.10;99.90;;;;;;5052636;28;20184;-43
2023/04/28 10:58:50;;;;;;;2.47;0.60;;;17.20;99.90;;;;;;5044835;28;20192;-43
2023/04/28 11:01:19;;;;;;;0.60;0.50;;;17.10;99.90;;;;;;5013683;28;20202;-43
2023/04/28 11:04:03;;;;;;;0.75;0.50;;;17.20;99.90;;;;;;5025798;28;20231;-43
2023/04/28 11:06:34;;;;;;;0.63;0.60;;;17.30;99.90;;;;;;5043449;28;20182;-43
2023/04/28 11:09:02;;;;;;;0.60;0.60;;;17.20;99.90;;;;;;5032727;28;20175;-43
2023/04/28 11:11:33;;;;;;;2.08;0.50;;;17.20;99.90;;;;;;5046629;28;20229;-42
2023/04/28 11:14:17;;;;;;;0.65;0.60;;;17.20;99.90;;;;;;5032804;28;20249;-43
2023/04/28 11:17:03;;;;;;;0.50;0.50;;;17.30;99.90;;;;;;5032981;28;20178;-42
2023/04/28 11:19:33;;;;;;;0.85;0.50;;;17.40;99.90;;;;;;5032810;28;20201;-42
2023/04/28 11:22:01;;;;;;;0.73;0.60;;;17.40;99.90;;;;;;5032825;28;20212;-42
2023/04/28 11:24:29;;;;;;;1.02;0.50;;;17.50;99.90;;;;;;5033439;28;20275;-42
2023/04/28 11:26:55;;;;;;;0.60;0.60;;;17.60;99.90;;;;;;5043272;28;20171;-42
2023/04/28 11:29:32;;;;;;;0.50;0.50;;;17.70;99.90;;;;;;5024504;28;20257;-40
2023/04/28 11:31:59;;;;;;;0.65;0.60;;;17.90;99.90;;;;;;5028376;28;20204;-43
2023/04/28 11:34:25;;;;;;;0.57;0.57;;;18.20;99.90;;;;;;5051362;28;20182;-42
2023/04/28 11:36:51;;;;;;;0.60;0.50;;;18.40;99.90;;;;;;5050038;28;20189;-42
2023/04/28 11:39:27;;;;;;;0.60;0.60;;;18.30;99.90;;;;;;5055345;28;20231;-42
2023/04/28 11:41:53;;;;;;;0.75;0.60;;;18.30;99.90;;;;;;5032748;28;20209;-43
2023/04/28 11:44:22;;;;;;;0.55;0.55;;;18.30;99.90;;;;;;5050244;28;20186;-43
2023/04/28 11:46:54;;;;;;;0.47;0.47;;;18.20;99.90;;;;;;5051590;28;20186;-43
2023/04/28 11:49:23;;;;;;;0.77;0.77;;;18.10;99.90;;;;;;5032588;28;20186;-42
2023/04/28 11:51:52;;;;;;;0.50;0.50;;;17.90;99.90;;;;;;5048033;28;20197;-43
2023/04/28 11:54:27;;;;;;;0.88;0.60;;;17.80;99.90;;;;;;5032419;28;20257;-42
2023/04/28 11:57:02;;;;;;;2.70;0.60;;;17.70;99.90;;;;;;5036498;28;20288;-42
2023/04/28 11:59:30;;;;;;;0.60;0.60;;;17.80;99.90;;;;;;4995305;28;20193;-43
2023/04/28 12:01:59;;;;;;;1.90;0.50;;;17.80;99.90;;;;;;5012302;28;20210;-39
2023/04/28 12:04:36;;;;;;;1.25;0.70;;;17.80;99.90;;;;;;5031506;28;20185;-42
2023/04/28 12:07:12;;;;;;;0.40;0.40;;;17.80;99.90;;;;;;5036653;28;20210;-43
2023/04/28 12:09:40;;;;;;;1.10;1.00;;;17.90;99.90;;;;;;5045908;28;20189;-42
2023/04/28 12:12:13;;;;;;;1.15;0.70;;;17.90;99.90;;;;;;5037599;28;20212;-42
2023/04/28 12:15:06;;;;;;;0.52;0.52;;;18.00;99.90;;;;;;5033195;28;20212;-43
2023/04/28 12:17:36;;;;;;;1.42;0.52;;;18.10;99.90;;;;;;5055706;28;20181;-41
2023/04/28 12:20:05;;;;;;;1.30;0.65;;;18.10;99.90;;;;;;5038286;28;20177;-43
2023/04/28 12:22:43;;;;;;;0.80;0.60;;;18.10;99.90;;;;;;5051747;28;20246;-42
2023/04/28 12:25:12;;;;;;;0.50;0.50;;;18.20;99.90;;;;;;5062433;28;20180;-42
2023/04/28 12:27:39;;;;;;;0.55;0.55;;;18.20;99.90;;;;;;5009113;28;20190;-43
2023/04/28 12:30:23;;;;;;;1.55;0.68;;;18.10;99.90;;;;;;5048966;28;20184;-42
2023/04/28 12:32:50;;;;;;;0.60;0.60;;;18.20;99.90;;;;;;5018470;28;20174;-43
2023/04/28 12:35:16;;;;;;;0.70;0.70;;;18.20;99.90;;;;;;5041330;28;20204;-42
2023/04/28 12:37:42;;;;;;;0.70;0.70;;;18.10;99.90;;;;;;5043811;28;20185;-42
2023/04/28 12:40:09;;;;;;;1.17;0.80;;;18.00;99.90;;;;;;5050893;28;20178;-42
2023/04/28 12:42:35;;;;;;;0.50;0.50;;;18.10;99.90;;;;;;5025588;28;20186;-42
2023/04/28 12:45:03;;;;;;;0.60;0.60;;;18.10;99.90;;;;;;5038543;28;20177;-43
2023/04/28 12:47:30;;;;;;;0.52;0.52;;;18.20;99.90;;;;;;5056579;28;20180;-42
2023/04/28 12:49:56;;;;;;;0.60;0.60;;;18.10;99.90;;;;;;5048241;28;20177;-42
2023/04/28 12:52:22;;;;;;;0.50;0.50;;;18.10;99.90;;;;;;5053010;28;20194;-43